Time;durP1;ratioP1;P1;durP2;ratioP2;P2;SDS_P1;SDS_P2;PMS_P1;PMS_P2;Temp;Humidity;BMP_temperature;BMP_pressure;BME280_temperature;BME280_humidity;BME280_pressure;Samples;Min_cycle;Max_cycle;Signal;HPM_P1;HPM_P2
2022/07/26 00:00:50;;;;;;;7.15;2.80;;;;;;;18.07;75.87;101229.00;4877686;29;20741;-75
2022/07/26 00:03:16;;;;;;;6.70;3.00;;;;;;;18.06;75.73;101238.97;4877644;29;20465;-75
2022/07/26 00:05:42;;;;;;;6.82;2.78;;;;;;;18.05;75.88;101234.66;4877322;29;20032;-75
2022/07/26 00:08:10;;;;;;;4.00;2.80;;;;;;;18.03;76.03;101238.66;4877617;29;20402;-69
2022/07/26 00:10:48;;;;;;;10.27;3.42;;;;;;;18.03;75.68;101239.47;4877351;29;20025;-70
2022/07/26 00:13:16;;;;;;;8.88;4.35;;;;;;;18.05;76.16;101233.81;4877574;29;20037;-70
2022/07/26 00:15:42;;;;;;;8.70;2.67;;;;;;;18.06;76.09;101238.16;4877253;29;20036;-70
2022/07/26 00:18:07;;;;;;;11.30;3.10;;;;;;;18.01;76.22;101230.78;4877418;29;20457;-70
2022/07/26 00:20:33;;;;;;;6.03;3.58;;;;;;;18.04;76.34;101233.00;4860684;29;20120;-70
2022/07/26 00:22:58;;;;;;;8.82;3.58;;;;;;;18.02;76.08;101240.50;4876754;29;20029;-70
2022/07/26 00:25:24;;;;;;;6.47;2.47;;;;;;;18.02;76.38;101226.19;4860345;29;20033;-70
2022/07/26 00:27:49;;;;;;;5.18;2.72;;;;;;;18.00;76.33;101231.00;4876947;29;20382;-70
2022/07/26 00:30:14;;;;;;;7.60;2.83;;;;;;;17.97;76.37;101232.28;4877184;29;20127;-69
2022/07/26 00:32:40;;;;;;;6.80;2.45;;;;;;;17.98;76.56;101233.13;4860248;29;20047;-69
2022/07/26 00:35:06;;;;;;;8.05;2.63;;;;;;;17.93;76.99;101241.94;4877010;29;20493;-70
2022/07/26 00:37:32;;;;;;;11.52;2.75;;;;;;;17.92;76.87;101243.81;4877058;29;20089;-69
2022/07/26 00:39:58;;;;;;;6.65;2.20;;;;;;;17.89;76.84;101238.06;4860065;29;20033;-70
2022/07/26 00:42:23;;;;;;;4.18;2.30;;;;;;;17.87;77.17;101235.59;4877129;29;20055;-69
2022/07/26 00:44:48;;;;;;;7.97;3.67;;;;;;;17.92;76.81;101249.22;4876321;29;20588;-69
2022/07/26 00:47:14;;;;;;;4.90;2.35;;;;;;;17.90;77.24;101248.63;4876624;29;20108;-69
2022/07/26 00:49:40;;;;;;;9.43;2.70;;;;;;;17.88;77.32;101242.63;4876406;29;20053;-70
2022/07/26 00:52:06;;;;;;;7.75;2.72;;;;;;;17.85;77.36;101250.38;4876835;29;20041;-70
2022/07/26 00:54:32;;;;;;;5.20;2.88;;;;;;;17.81;77.80;101236.53;4876065;29;20041;-69
2022/07/26 00:56:57;;;;;;;6.30;2.72;;;;;;;17.83;77.39;101241.69;4876497;29;20048;-70
2022/07/26 00:59:23;;;;;;;7.55;2.38;;;;;;;17.75;77.84;101246.34;4876580;29;20037;-70
2022/07/26 01:01:48;;;;;;;6.40;2.67;;;;;;;17.74;77.95;101244.72;4876484;29;20041;-70
2022/07/26 01:04:14;;;;;;;12.23;2.47;;;;;;;17.75;78.18;101240.16;4876476;29;20128;-69
2022/07/26 01:06:40;;;;;;;8.75;3.47;;;;;;;17.70;78.26;101238.16;4859679;29;20036;-70
2022/07/26 01:09:05;;;;;;;9.45;2.40;;;;;;;17.74;77.88;101242.03;4876363;29;20112;-69
2022/07/26 01:11:31;;;;;;;8.65;3.05;;;;;;;17.73;77.99;101237.66;4876163;29;20445;-70
2022/07/26 01:13:57;;;;;;;7.30;2.00;;;;;;;17.69;78.11;101241.09;4876455;29;20045;-69
2022/07/26 01:16:24;;;;;;;3.80;2.40;;;;;;;17.71;78.33;101241.66;4876204;29;21160;-69
2022/07/26 01:18:50;;;;;;;9.98;2.47;;;;;;;17.68;78.45;101240.28;4875961;29;20374;-69
2022/07/26 01:21:15;;;;;;;7.05;2.60;;;;;;;17.66;78.54;101237.00;4876181;29;20040;-70
2022/07/26 01:23:42;;;;;;;8.48;2.30;;;;;;;17.67;78.87;101237.81;4876114;29;20116;-69
2022/07/26 01:26:08;;;;;;;4.13;1.92;;;;;;;17.68;79.00;101234.03;4875688;29;20037;-69
2022/07/26 01:28:37;;;;;;;6.35;2.65;;;;;;;17.66;78.68;101228.91;4876190;29;20355;-69
2022/07/26 01:31:04;;;;;;;7.82;2.42;;;;;;;17.63;78.52;101232.06;4876148;29;20054;-69
2022/07/26 01:33:30;;;;;;;9.70;2.53;;;;;;;17.59;78.91;101221.97;4875705;29;20029;-69
2022/07/26 01:35:55;;;;;;;8.90;3.00;;;;;;;17.57;79.11;101224.06;4875787;29;20055;-69
2022/07/26 01:38:21;;;;;;;11.80;2.45;;;;;;;17.52;79.30;101224.75;4875992;29;20040;-69
2022/07/26 01:40:46;;;;;;;5.15;2.22;;;;;;;17.53;79.31;101229.13;4859346;29;20033;-69
2022/07/26 01:43:11;;;;;;;7.50;2.80;;;;;;;17.52;79.81;101232.84;4859291;29;20033;-69
2022/07/26 01:45:37;;;;;;;9.18;2.53;;;;;;;17.52;79.86;101230.16;4859236;29;20080;-69
2022/07/26 01:48:03;;;;;;;5.70;2.78;;;;;;;17.50;80.07;101235.81;4859053;29;20032;-69
2022/07/26 01:50:28;;;;;;;3.22;2.17;;;;;;;17.50;80.48;101238.50;4876034;29;20081;-70
2022/07/26 01:52:53;;;;;;;10.02;3.67;;;;;;;17.48;80.59;101235.22;4875837;29;20044;-69
2022/07/26 01:55:19;;;;;;;9.18;3.92;;;;;;;17.46;81.00;101234.63;4875578;29;20533;-69
2022/07/26 01:57:45;;;;;;;9.50;3.22;;;;;;;17.47;81.27;101238.13;4875508;29;20049;-75
2022/07/26 02:00:11;;;;;;;8.40;3.25;;;;;;;17.44;81.27;101223.22;4875626;29;20085;-75
2022/07/26 02:02:37;;;;;;;11.95;3.08;;;;;;;17.46;81.59;101233.81;4858892;29;20128;-75
2022/07/26 02:05:03;;;;;;;7.60;3.40;;;;;;;17.49;81.54;101238.72;4875697;29;20040;-75
2022/07/26 02:07:38;;;;;;;7.90;2.63;;;;;;;17.50;81.64;101246.59;4875501;29;20061;-75
2022/07/26 02:10:03;;;;;;;4.50;2.65;;;;;;;17.47;81.93;101249.72;4875369;29;20523;-75
2022/07/26 02:12:29;;;;;;;7.57;2.80;;;;;;;17.45;82.14;101238.38;4875461;29;20075;-75
2022/07/26 02:14:54;;;;;;;9.52;2.85;;;;;;;17.47;82.44;101241.63;4875892;29;20982;-75
2022/07/26 02:17:20;;;;;;;4.78;2.42;;;;;;;17.45;82.57;101245.66;4875554;29;20064;-75
2022/07/26 02:19:45;;;;;;;8.98;2.47;;;;;;;17.49;82.54;101244.94;4875239;29;20089;-75
2022/07/26 02:22:10;;;;;;;9.95;3.25;;;;;;;17.48;82.55;101250.56;4875571;29;20450;-75
2022/07/26 02:24:36;;;;;;;6.72;3.20;;;;;;;17.51;82.92;101252.81;4858769;29;20021;-75
2022/07/26 02:27:02;;;;;;;12.90;3.65;;;;;;;17.51;82.71;101250.91;4858451;29;20061;-75
2022/07/26 02:29:28;;;;;;;10.45;3.17;;;;;;;17.50;82.97;101248.44;4875228;29;20155;-75
2022/07/26 02:31:54;;;;;;;11.38;3.05;;;;;;;17.50;83.02;101254.69;4875240;29;20529;-75
2022/07/26 02:34:19;;;;;;;9.60;4.05;;;;;;;17.50;82.97;101259.22;4858378;29;20042;-75
2022/07/26 02:36:45;;;;;;;9.82;3.70;;;;;;;17.46;83.06;101248.09;4858733;29;20043;-75
2022/07/26 02:39:11;;;;;;;7.22;3.35;;;;;;;17.51;83.60;101248.22;4875327;29;20044;-75
2022/07/26 02:41:37;;;;;;;8.98;3.20;;;;;;;17.44;83.94;101252.91;4875239;29;20032;-75
2022/07/26 02:44:03;;;;;;;11.82;5.10;;;;;;;17.47;84.06;101255.13;4874952;29;20062;-75
2022/07/26 02:46:28;;;;;;;6.78;4.13;;;;;;;17.49;83.94;101257.59;4875295;29;20393;-75
2022/07/26 02:48:54;;;;;;;6.45;2.95;;;;;;;17.47;84.24;101263.22;4874774;29;20029;-75
2022/07/26 02:51:19;;;;;;;11.10;3.42;;;;;;;17.50;84.35;101261.94;4875293;29;20029;-75
2022/07/26 02:53:45;;;;;;;10.13;3.13;;;;;;;17.48;84.42;101267.56;4858101;29;20059;-75
2022/07/26 02:56:10;;;;;;;14.15;3.97;;;;;;;17.48;nan;101267.56;4875100;29;20089;-75
2022/07/26 02:58:36;;;;;;;13.50;4.60;;;;;;;17.44;85.38;101260.16;4874818;29;20047;-75
2022/07/26 03:01:02;;;;;;;6.90;3.35;;;;;;;17.46;85.11;101272.38;4875164;29;20040;-75
2022/07/26 03:03:27;;;;;;;10.57;3.63;;;;;;;17.42;85.26;101262.28;4874999;29;20052;-75
2022/07/26 03:05:53;;;;;;;10.93;3.72;;;;;;;17.49;85.47;101277.28;4875104;29;20029;-75
2022/07/26 03:08:18;;;;;;;11.93;3.63;;;;;;;17.47;85.85;101273.19;4875022;29;20032;-75
2022/07/26 03:10:43;;;;;;;10.98;3.40;;;;;;;17.45;86.04;101272.63;4874882;29;20033;-75
2022/07/26 03:13:09;;;;;;;10.98;4.85;;;;;;;17.43;86.05;101278.22;4874972;29;20149;-75
2022/07/26 03:15:34;;;;;;;10.77;4.60;;;;;;;17.41;86.24;101283.03;4874874;29;20036;-75
2022/07/26 03:18:00;;;;;;;10.02;3.75;;;;;;;17.36;86.69;101272.13;4858907;29;20041;-75
2022/07/26 03:20:25;;;;;;;10.05;3.58;;;;;;;17.38;86.73;101283.50;4878274;29;20039;-75
2022/07/26 03:22:50;;;;;;;11.52;4.55;;;;;;;17.35;87.09;101283.97;4878309;29;20033;-75
2022/07/26 03:25:16;;;;;;;13.68;4.85;;;;;;;17.31;87.00;101286.28;4878153;29;20060;-75
2022/07/26 03:27:41;;;;;;;14.73;5.25;;;;;;;17.32;87.45;101303.31;4878150;29;20051;-74
2022/07/26 03:30:07;;;;;;;15.35;5.43;;;;;;;17.29;87.42;101290.25;4878033;29;20041;-76
2022/07/26 03:32:33;;;;;;;11.15;3.92;;;;;;;17.32;87.58;101295.22;4877639;29;20089;-75
2022/07/26 03:34:58;;;;;;;14.80;5.35;;;;;;;17.32;87.66;101292.53;4878214;29;20036;-75
2022/07/26 03:37:24;;;;;;;16.13;5.15;;;;;;;17.29;87.84;101291.09;4878148;29;20987;-75
2022/07/26 03:39:49;;;;;;;10.55;5.07;;;;;;;17.25;88.12;101295.31;4877948;29;20642;-75
2022/07/26 03:42:15;;;;;;;10.90;5.15;;;;;;;17.23;88.21;101296.59;4878185;29;20029;-75
2022/07/26 03:44:41;;;;;;;11.80;4.38;;;;;;;17.26;88.25;101305.03;4877829;29;20144;-75
2022/07/26 03:47:06;;;;;;;15.15;4.57;;;;;;;17.28;88.21;101302.91;4878001;29;20029;-75
2022/07/26 03:49:32;;;;;;;8.95;3.90;;;;;;;17.28;88.31;101311.00;4877815;29;20028;-76
2022/07/26 03:51:57;;;;;;;11.60;5.30;;;;;;;17.26;88.45;101305.03;4877391;29;20125;-75
2022/07/26 03:54:23;;;;;;;12.60;4.85;;;;;;;17.26;88.44;101313.09;4877586;29;20382;-75
2022/07/26 03:56:48;;;;;;;10.98;4.22;;;;;;;17.25;88.70;101313.34;4877612;29;20055;-75
2022/07/26 03:59:14;;;;;;;14.88;4.70;;;;;;;17.20;88.88;101308.66;4877450;29;20032;-75
2022/07/26 04:01:41;;;;;;;13.93;5.07;;;;;;;17.19;88.96;101316.97;4877695;29;20048;-75
2022/07/26 04:04:08;;;;;;;14.52;4.95;;;;;;;17.12;89.56;101310.84;4877563;29;20085;-75
2022/07/26 04:06:34;;;;;;;17.63;5.30;;;;;;;17.20;89.57;101313.22;4877615;29;20036;-75
2022/07/26 04:08:59;;;;;;;13.05;4.53;;;;;;;17.14;90.14;101314.97;4877594;29;20036;-75
2022/07/26 04:11:24;;;;;;;14.15;5.00;;;;;;;17.14;89.66;101314.97;4868206;29;20058;-76
2022/07/26 04:13:50;;;;;;;13.00;4.18;;;;;;;17.12;90.09;101313.53;4895940;29;20073;-76
2022/07/26 04:16:15;;;;;;;14.25;5.22;;;;;;;17.13;90.44;101315.19;4895917;29;20138;-75
2022/07/26 04:18:41;;;;;;;17.33;5.75;;;;;;;17.16;90.21;101323.66;4896076;29;20104;-75
2022/07/26 04:21:06;;;;;;;10.65;4.18;;;;;;;17.18;90.51;101315.31;4878947;29;20047;-75
2022/07/26 04:23:32;;;;;;;15.40;5.00;;;;;;;17.21;90.46;101325.63;4879124;29;20043;-75
2022/07/26 04:25:57;;;;;;;15.93;6.53;;;;;;;17.21;90.32;101313.00;4895954;29;20040;-75
2022/07/26 04:28:25;;;;;;;9.68;4.40;;;;;;;17.28;90.44;101320.97;4878542;29;20040;-75
2022/07/26 04:30:51;;;;;;;14.63;5.88;;;;;;;17.29;90.29;101328.00;4894627;29;20033;-75
2022/07/26 04:33:16;;;;;;;14.50;5.55;;;;;;;17.36;90.32;101336.00;4895020;29;20048;-75
2022/07/26 04:35:41;;;;;;;12.82;5.30;;;;;;;17.39;90.05;101332.84;4895621;29;20033;-75
2022/07/26 04:38:07;;;;;;;12.27;4.72;;;;;;;17.40;90.09;101334.50;4895483;29;20032;-69
2022/07/26 04:40:32;;;;;;;15.02;4.90;;;;;;;17.37;90.23;101321.47;4896555;29;20386;-69
2022/07/26 04:43:00;;;;;;;12.50;5.60;;;;;;;17.41;90.43;101334.25;4878618;29;20033;-70
2022/07/26 04:45:26;;;;;;;11.80;4.53;;;;;;;17.42;90.33;101338.63;4895662;29;20052;-70
2022/07/26 04:47:51;;;;;;;8.73;4.20;;;;;;;17.41;90.04;101334.25;4895428;29;20041;-69
2022/07/26 04:50:21;;;;;;;12.32;4.93;;;;;;;17.45;90.33;101346.25;4895434;29;20032;-70
2022/07/26 04:52:50;;;;;;;12.98;4.60;;;;;;;17.41;90.31;101333.44;4894982;29;20032;-69
2022/07/26 04:55:17;;;;;;;10.68;4.63;;;;;;;17.42;90.41;101340.47;4878003;29;20029;-70
2022/07/26 04:57:42;;;;;;;15.05;5.15;;;;;;;17.42;90.31;101344.03;4895067;29;20508;-69
2022/07/26 05:00:10;;;;;;;12.85;5.22;;;;;;;17.41;90.43;101347.75;4895125;29;20037;-70
2022/07/26 05:02:35;;;;;;;11.98;4.43;;;;;;;17.41;90.41;101341.53;4895115;29;21000;-69
2022/07/26 05:05:01;;;;;;;16.65;5.28;;;;;;;17.41;90.46;101347.75;4895036;29;20071;-69
2022/07/26 05:07:27;;;;;;;13.98;4.38;;;;;;;17.44;90.50;101349.16;4878309;29;20088;-69
2022/07/26 05:09:52;;;;;;;10.90;4.75;;;;;;;17.44;90.42;101339.19;4894936;29;20037;-69
2022/07/26 05:12:18;;;;;;;16.33;5.28;;;;;;;17.45;90.28;101348.13;4880516;29;20064;-69
2022/07/26 05:14:43;;;;;;;11.25;5.38;;;;;;;17.45;90.34;101354.34;4875950;29;20071;-69
2022/07/26 05:17:09;;;;;;;14.20;4.50;;;;;;;17.45;90.73;101356.22;4876357;29;20079;-69
2022/07/26 05:19:35;;;;;;;15.70;5.93;;;;;;;17.55;90.14;101345.66;4876413;29;20037;-69
2022/07/26 05:22:00;;;;;;;9.82;4.55;;;;;;;17.75;89.16;101358.84;4875884;29;20044;-70
2022/07/26 05:24:25;;;;;;;16.45;5.20;;;;;;;17.84;89.04;101356.66;4876168;29;20053;-69
2022/07/26 05:26:51;;;;;;;14.88;5.97;;;;;;;17.85;88.50;101363.72;4875859;29;20036;-69
2022/07/26 05:29:16;;;;;;;13.48;5.10;;;;;;;17.91;88.50;101366.28;4876142;29;20068;-70
2022/07/26 05:31:41;;;;;;;15.43;4.95;;;;;;;17.93;88.27;101364.19;4875636;29;20036;-69
2022/07/26 05:34:07;;;;;;;15.20;5.78;;;;;;;17.96;88.13;101373.69;4875627;29;20041;-69
2022/07/26 05:36:33;;;;;;;13.07;4.93;;;;;;;18.02;87.85;101371.94;4859237;29;20060;-69
2022/07/26 05:38:58;;;;;;;11.95;4.80;;;;;;;18.08;87.23;101371.84;4875855;29;20385;-69
2022/07/26 05:41:23;;;;;;;9.90;4.63;;;;;;;18.14;87.05;101378.19;4858865;29;20047;-70
2022/07/26 05:43:49;;;;;;;13.32;5.22;;;;;;;18.22;86.55;101374.31;4875798;29;20021;-69
2022/07/26 05:46:14;;;;;;;16.08;4.53;;;;;;;18.20;86.57;101371.84;4875830;29;20116;-69
2022/07/26 05:48:41;;;;;;;17.30;5.63;;;;;;;18.31;86.55;101381.84;4875511;29;20127;-70
2022/07/26 05:51:07;;;;;;;15.40;6.20;;;;;;;18.35;86.15;101376.78;4875576;29;20101;-69
2022/07/26 05:53:33;;;;;;;10.77;4.70;;;;;;;18.32;85.93;101369.97;4875612;29;20124;-69
2022/07/26 05:55:58;;;;;;;12.65;4.15;;;;;;;18.36;85.76;101376.53;4859017;29;20463;-70
2022/07/26 05:58:24;;;;;;;9.48;4.75;;;;;;;18.45;85.79;101387.00;4875381;29;20124;-69
2022/07/26 06:00:49;;;;;;;14.43;5.35;;;;;;;18.47;85.92;101393.81;4858722;29;20469;-69
2022/07/26 06:03:24;;;;;;;9.95;4.60;;;;;;;18.48;85.59;101390.03;4875653;29;20029;-69
2022/07/26 06:05:52;;;;;;;18.08;6.03;;;;;;;18.56;85.30;101396.97;4875540;29;20107;-69
2022/07/26 06:08:18;;;;;;;14.18;6.38;;;;;;;18.59;84.99;101401.88;4875131;29;20113;-69
2022/07/26 06:10:44;;;;;;;10.75;4.75;;;;;;;18.63;85.14;101397.66;4874951;29;20036;-69
2022/07/26 06:13:09;;;;;;;9.50;4.70;;;;;;;18.68;84.48;101396.94;4875275;29;20057;-69
2022/07/26 06:15:36;;;;;;;17.02;7.47;;;;;;;18.67;83.65;101393.41;4875393;29;20141;-69
2022/07/26 06:18:02;;;;;;;13.43;5.38;;;;;;;18.65;84.07;101395.53;4875255;29;20043;-69
2022/07/26 06:20:27;;;;;;;10.70;5.60;;;;;;;18.67;83.69;101398.81;4875300;29;20037;-69
2022/07/26 06:22:53;;;;;;;10.40;5.00;;;;;;;18.68;84.08;101400.47;4875331;29;20394;-69
2022/07/26 06:25:18;;;;;;;9.50;5.38;;;;;;;18.66;82.92;101399.88;4875149;29;20032;-69
2022/07/26 06:27:43;;;;;;;12.43;5.95;;;;;;;18.68;83.15;101400.47;4858517;29;20511;-69
2022/07/26 06:30:09;;;;;;;9.05;3.53;;;;;;;18.73;81.29;101408.69;4875292;29;20041;-69
2022/07/26 06:32:35;;;;;;;11.68;3.95;;;;;;;18.76;82.05;101404.72;4875242;29;20033;-69
2022/07/26 06:35:00;;;;;;;10.35;4.95;;;;;;;18.86;81.37;101404.91;4875212;29;20960;-69
2022/07/26 06:37:25;;;;;;;7.53;4.32;;;;;;;18.85;81.56;101402.47;4874807;29;20040;-69
2022/07/26 06:39:51;;;;;;;15.80;5.85;;;;;;;18.86;81.84;101404.09;4858479;29;20100;-70
2022/07/26 06:42:17;;;;;;;8.02;3.95;;;;;;;18.91;81.59;101413.13;4854767;29;20033;-69
2022/07/26 06:44:42;;;;;;;14.70;6.53;;;;;;;18.87;80.54;101414.69;4854500;29;20486;-74
2022/07/26 06:47:08;;;;;;;11.85;6.20;;;;;;;18.91;80.63;101413.13;4873271;29;20135;-73
2022/07/26 06:49:33;;;;;;;13.85;4.50;;;;;;;18.98;80.31;101418.44;4875223;29;20088;-73
2022/07/26 06:51:58;;;;;;;11.05;4.82;;;;;;;19.09;80.75;101414.03;4875020;29;20044;-73
2022/07/26 06:54:24;;;;;;;16.90;6.20;;;;;;;19.12;79.17;101414.38;4877640;29;20568;-73
2022/07/26 06:56:49;;;;;;;8.15;5.75;;;;;;;19.12;78.36;101418.97;4878457;29;20041;-73
2022/07/26 06:59:14;;;;;;;14.50;7.03;;;;;;;19.25;78.93;101426.81;4878751;29;20037;-73
2022/07/26 07:01:40;;;;;;;11.40;7.00;;;;;;;19.19;78.17;101425.06;4878620;29;20426;-73
2022/07/26 07:04:05;;;;;;;12.57;6.57;;;;;;;19.19;78.57;101425.06;4878655;29;20025;-73
2022/07/26 07:06:31;;;;;;;18.15;7.78;;;;;;;19.25;78.06;101421.41;4878746;29;20029;-73
2022/07/26 07:08:56;;;;;;;15.13;8.30;;;;;;;19.37;78.48;101432.19;4878461;29;20082;-74
2022/07/26 07:11:22;;;;;;;12.75;6.78;;;;;;;19.44;78.56;101430.13;4878279;29;20153;-74
2022/07/26 07:13:47;;;;;;;15.60;7.38;;;;;;;19.38;77.06;101436.53;4878373;29;20528;-74
2022/07/26 07:16:12;;;;;;;14.30;6.25;;;;;;;19.30;78.01;101442.31;4878381;29;20541;-73
2022/07/26 07:18:38;;;;;;;10.60;5.88;;;;;;;19.24;78.15;101444.91;4878186;29;20132;-70
2022/07/26 07:21:03;;;;;;;14.25;5.57;;;;;;;19.24;78.12;101442.22;4878245;29;20386;-74
2022/07/26 07:23:29;;;;;;;15.95;6.25;;;;;;;19.25;77.20;101448.44;4878239;29;20068;-74
2022/07/26 07:25:54;;;;;;;11.90;5.88;;;;;;;19.33;77.11;101445.34;4878247;29;20111;-73
2022/07/26 07:28:19;;;;;;;14.40;4.82;;;;;;;19.51;76.76;101447.06;4877762;29;20088;-74
2022/07/26 07:30:46;;;;;;;12.68;4.85;;;;;;;19.59;75.43;101451.25;4877581;29;20047;-74
2022/07/26 07:33:12;;;;;;;8.63;5.03;;;;;;;19.53;75.36;101439.53;4878125;29;20032;-74
2022/07/26 07:35:39;;;;;;;12.32;4.32;;;;;;;19.63;75.69;101444.31;4878042;29;20056;-73
2022/07/26 07:38:04;;;;;;;8.00;4.80;;;;;;;19.78;76.64;101446.50;4877633;29;20036;-73
2022/07/26 07:40:30;;;;;;;6.88;4.00;;;;;;;19.85;74.96;101442.56;4877874;29;20029;-73
2022/07/26 07:42:55;;;;;;;6.80;3.72;;;;;;;19.84;74.38;101448.25;4877755;29;20045;-74
2022/07/26 07:45:21;;;;;;;5.82;3.65;;;;;;;19.85;72.63;101444.47;4878024;29;20052;-73
2022/07/26 07:47:46;;;;;;;7.88;3.80;;;;;;;19.88;73.38;101450.19;4877988;29;20040;-74
2022/07/26 07:50:11;;;;;;;7.97;4.35;;;;;;;19.88;72.04;101439.38;4861022;29;20040;-73
2022/07/26 07:52:37;;;;;;;11.63;4.32;;;;;;;19.89;71.91;101445.63;4877817;29;20417;-74
2022/07/26 07:55:03;;;;;;;10.07;3.40;;;;;;;19.78;72.62;101454.59;4877663;29;20051;-73
2022/07/26 07:57:29;;;;;;;8.88;3.70;;;;;;;19.59;74.26;101453.97;4877835;29;20493;-73
2022/07/26 07:59:55;;;;;;;8.07;3.55;;;;;;;19.39;78.51;101470.66;4876865;29;20064;-73
2022/07/26 08:02:20;;;;;;;10.63;3.75;;;;;;;19.13;81.41;101477.41;4877675;29;20634;-73
2022/07/26 08:04:45;;;;;;;9.07;3.70;;;;;;;18.64;84.76;101477.66;4877445;29;20033;-73
2022/07/26 08:07:11;;;;;;;8.30;3.20;;;;;;;18.18;86.47;101482.78;4877560;29;20127;-73
2022/07/26 08:09:36;;;;;;;6.72;2.58;;;;;;;17.89;90.26;101479.06;4860893;29;20128;-73
2022/07/26 08:12:02;;;;;;;7.15;1.98;;;;;;;17.77;90.08;101486.25;4877279;29;20065;-73
2022/07/26 08:14:27;;;;;;;1.88;1.00;;;;;;;17.69;88.84;101495.50;4877264;29;20059;-74
2022/07/26 08:16:53;;;;;;;1.73;1.08;;;;;;;17.71;88.81;101496.09;4877160;29;20080;-73
2022/07/26 08:19:19;;;;;;;2.22;0.95;;;;;;;17.74;88.57;101497.53;4877154;29;20580;-73
2022/07/26 08:21:45;;;;;;;3.60;1.10;;;;;;;17.84;88.00;101511.31;4877133;29;20033;-73
2022/07/26 08:24:10;;;;;;;1.98;1.65;;;;;;;17.95;88.31;101513.22;4877210;29;20120;-73
2022/07/26 08:26:36;;;;;;;2.55;1.00;;;;;;;18.06;88.19;101511.63;4877178;29;20379;-73
2022/07/26 08:29:02;;;;;;;7.40;1.42;;;;;;;18.12;86.74;101504.47;4877062;29;20068;-73
2022/07/26 08:31:27;;;;;;;2.95;1.60;;;;;;;18.23;86.83;101514.47;4877042;29;20029;-73
2022/07/26 08:33:53;;;;;;;3.03;1.15;;;;;;;18.28;88.15;101516.47;4876860;29;20489;-73
2022/07/26 08:36:18;;;;;;;3.65;1.58;;;;;;;18.31;87.75;101513.31;4876973;29;20047;-73
2022/07/26 08:38:44;;;;;;;2.97;1.10;;;;;;;18.31;85.73;101511.47;4876660;29;20033;-73
2022/07/26 08:41:09;;;;;;;1.52;1.17;;;;;;;18.42;86.53;101517.94;4876726;29;20120;-67
2022/07/26 08:43:35;;;;;;;0.60;0.60;;;;;;;18.47;86.65;101512.66;4876660;29;20370;-67
2022/07/26 08:46:01;;;;;;;2.83;1.45;;;;;;;18.51;85.75;101521.09;4860113;29;20401;-68
2022/07/26 08:48:27;;;;;;;1.10;1.00;;;;;;;18.53;86.38;101514.41;4860241;29;20037;-68
2022/07/26 08:50:54;;;;;;;2.85;1.08;;;;;;;18.61;87.34;101518.66;4876665;29;20037;-67
2022/07/26 08:53:20;;;;;;;1.35;0.93;;;;;;;18.61;86.13;101510.56;4876701;29;20082;-67
2022/07/26 08:55:45;;;;;;;0.80;0.80;;;;;;;18.64;84.39;101534.41;4876418;29;20033;-68
2022/07/26 08:58:10;;;;;;;0.88;0.82;;;;;;;18.56;82.84;101542.84;4876370;29;20545;-68
2022/07/26 09:00:36;;;;;;;2.97;1.20;;;;;;;18.65;83.17;101538.72;4876173;29;20029;-67
2022/07/26 09:03:02;;;;;;;2.25;1.10;;;;;;;18.76;81.33;101526.34;4876209;29;20493;-67
2022/07/26 09:05:31;;;;;;;2.35;1.40;;;;;;;19.04;82.23;101539.13;4876307;29;20485;-67
2022/07/26 09:07:57;;;;;;;1.63;1.08;;;;;;;19.32;79.19;101545.69;4876426;29;20041;-67
2022/07/26 09:10:23;;;;;;;7.88;1.85;;;;;;;19.70;78.50;101545.97;4876391;29;20499;-68
2022/07/26 09:12:54;;;;;;;4.45;1.98;;;;;;;20.07;77.19;101544.78;4876169;29;20061;-69
2022/07/26 09:15:24;;;;;;;2.83;1.20;;;;;;;20.15;75.97;101547.09;4876008;29;20045;-68
2022/07/26 09:17:53;;;;;;;4.05;1.52;;;;;;;20.14;76.05;101543.53;4859110;29;20036;-68
2022/07/26 09:20:24;;;;;;;4.05;1.70;;;;;;;20.16;76.44;101551.44;4876141;29;20029;-68
2022/07/26 09:23:07;;;;;;;3.33;1.65;;;;;;;20.10;77.39;101560.53;4876178;29;20485;-68
2022/07/26 09:25:40;;;;;;;2.83;1.55;;;;;;;19.85;77.84;101553.56;4876219;29;20486;-68
2022/07/26 09:28:25;;;;;;;4.05;1.40;;;;;;;19.74;78.36;101559.84;4876002;29;20088;-68
2022/07/26 09:30:56;;;;;;;2.38;0.95;;;;;;;19.88;79.24;101561.19;4875940;29;20962;-68
2022/07/26 09:33:21;;;;;;;3.33;1.45;;;;;;;20.09;77.94;101562.41;4875971;29;20029;-68
2022/07/26 09:36:04;;;;;;;3.33;1.17;;;;;;;20.39;76.09;101574.06;4876430;29;20371;-69
2022/07/26 09:38:43;;;;;;;2.83;1.00;;;;;;;20.51;74.78;101569.34;4875285;29;20492;-68
2022/07/26 09:41:22;;;;;;;2.33;0.98;;;;;;;20.56;74.79;101573.00;4875810;29;20040;-68
2022/07/26 09:43:48;;;;;;;3.10;1.30;;;;;;;20.48;75.69;101567.97;4875754;29;20540;-68
2022/07/26 09:46:14;;;;;;;4.93;1.33;;;;;;;20.23;74.82;101572.97;4875667;29;20069;-68
2022/07/26 09:48:40;;;;;;;7.18;1.52;;;;;;;19.87;75.27;101553.34;4875453;29;20430;-68
2022/07/26 09:51:06;;;;;;;3.70;1.83;;;;;;;19.69;77.23;101578.69;4875586;29;20069;-68
2022/07/26 09:53:45;;;;;;;7.20;2.53;;;;;;;19.61;78.78;101579.03;4875746;29;20033;-68
2022/07/26 09:56:12;;;;;;;4.47;1.83;;;;;;;19.63;78.05;101587.75;4859978;29;20041;-68
2022/07/26 09:58:38;;;;;;;3.33;2.20;;;;;;;19.72;78.48;101582.81;4875686;29;20033;-68
2022/07/26 10:01:07;;;;;;;6.30;2.13;;;;;;;20.02;77.72;101588.00;4875718;29;20080;-68
2022/07/26 10:03:34;;;;;;;5.82;2.20;;;;;;;20.14;74.56;101589.56;4875132;29;20036;-68
2022/07/26 10:06:01;;;;;;;4.15;2.03;;;;;;;20.17;75.36;101590.97;4875409;29;20033;-68
2022/07/26 10:08:26;;;;;;;6.00;3.08;;;;;;;20.28;77.13;101582.00;4875398;29;20040;-68
2022/07/26 10:11:00;;;;;;;3.58;1.55;;;;;;;20.44;74.34;101574.97;4875151;29;20053;-69
2022/07/26 10:13:26;;;;;;;2.05;1.75;;;;;;;20.79;73.11;101576.63;4875426;29;20112;-68
2022/07/26 10:15:52;;;;;;;1.40;1.13;;;;;;;20.94;70.24;101582.28;4875055;29;20410;-68
2022/07/26 10:18:35;;;;;;;6.75;2.20;;;;;;;21.16;71.65;101585.03;4875155;29;20033;-68
2022/07/26 10:21:30;;;;;;;1.40;1.10;;;;;;;21.41;71.73;101587.34;4875036;29;20029;-68
2022/07/26 10:23:58;;;;;;;1.75;1.50;;;;;;;21.09;68.91;101586.28;4873570;29;20049;-69
2022/07/26 10:26:29;;;;;;;3.17;1.50;;;;;;;20.93;70.43;101587.94;4875332;29;20029;-68
2022/07/26 10:29:18;;;;;;;3.65;1.75;;;;;;;20.99;70.05;101581.56;4877436;29;20064;-68
2022/07/26 10:31:48;;;;;;;2.35;1.30;;;;;;;20.96;68.44;101584.78;4879208;29;20465;-68
2022/07/26 10:34:46;;;;;;;1.33;1.23;;;;;;;21.01;69.82;101588.38;4878830;29;20581;-68
2022/07/26 10:37:21;;;;;;;2.65;1.23;;;;;;;20.96;70.48;101601.03;4847457;29;20117;-68
2022/07/26 10:39:47;;;;;;;5.72;1.52;;;;;;;20.95;69.68;101586.63;4878971;29;20017;-68
2022/07/26 10:42:12;;;;;;;3.58;1.75;;;;;;;20.99;67.13;101595.94;4878918;29;20397;-68
2022/07/26 10:44:45;;;;;;;2.10;1.15;;;;;;;21.05;64.78;101596.00;4862196;29;20081;-68
2022/07/26 10:47:14;;;;;;;0.60;0.60;;;;;;;21.18;64.16;101596.47;4878969;29;20054;-68
2022/07/26 10:49:43;;;;;;;3.53;0.95;;;;;;;21.32;64.01;101591.50;4878718;29;20028;-68
2022/07/26 10:52:20;;;;;;;4.50;1.55;;;;;;;21.40;63.83;101598.44;4878701;29;20041;-70
2022/07/26 10:54:55;;;;;;;1.30;0.77;;;;;;;21.45;66.80;101595.78;4878549;29;20065;-69
2022/07/26 10:57:20;;;;;;;3.13;0.98;;;;;;;21.43;64.73;101603.34;4874632;29;20036;-69
2022/07/26 10:59:46;;;;;;;1.17;0.88;;;;;;;21.20;64.66;101593.53;4873913;29;20385;-69
2022/07/26 11:02:19;;;;;;;3.60;1.05;;;;;;;21.18;65.32;101598.38;4874689;29;20068;-70
2022/07/26 11:04:45;;;;;;;2.33;1.20;;;;;;;21.13;65.87;101601.84;4874457;29;20045;-68
2022/07/26 11:07:11;;;;;;;3.85;1.80;;;;;;;21.10;67.63;101593.38;4874567;29;20041;-71
2022/07/26 11:09:37;;;;;;;1.48;1.20;;;;;;;21.09;66.71;101605.28;4874697;29;20047;-70
2022/07/26 11:12:21;;;;;;;1.70;1.10;;;;;;;21.02;67.89;101611.72;4886512;29;20501;-72
2022/07/26 11:14:47;;;;;;;3.22;1.13;;;;;;;20.90;66.30;101610.16;4893108;29;20437;-70
2022/07/26 11:17:29;;;;;;;7.25;1.40;;;;;;;20.83;68.29;101626.59;4892703;29;20044;-71
2022/07/26 11:19:55;;;;;;;3.33;1.02;;;;;;;20.56;68.34;101627.22;4893274;29;20045;-70